Leo Ibañez

Recruteur - Racing Santander
20 Févr 2028
Dimanche
Processus

Personnalité

Adaptabilité (7) Ambition (8) Controverse (9) Loyauté (8) Pression (19) Professionnalisme (19) Sportivité (7) Tempérament (16)

Profil

Style d'entraînement Démocratique
Diplôme National A
Détermination 11
Gestion des joueurs 4
Motivation 5
Discipline 9
Satisfaction professionnelle
100%
Fatigue
0%
Rôle Recruteur
Salaire 46.5K p/s
Contrat 14.03.2028

Performance

Comportement Bon
Efficacité de l'entraînement
34%
Développement des joueurs
55%
Prévention des blessures
60%
Mise en place tactique
35%

Événements récents

Négociation de contrat entamée maintenant
Négociation de contrat entamée maintenant
Négociation de contrat entamée maintenant
Négociation de contrat entamée maintenant
Négociation de contrat entamée 7j
Négociation de contrat entamée 7j
Négociation de contrat entamée 7j
Négociation de contrat entamée 7j

Suivi en cours

78
Joueur Club Statut Capacité Confiance Observé Dernière observation Dernier vote
Salvador Blopá Sporting CP Actif 128 / 111 40% 2 31.01.2028 -
Honest Ahanor Udinese Actif 132 / 130 40% 2 31.01.2028 -
Sergio Molina Andorra Actif 114 / 110 76% 1 31.01.2028 Approuver
Agustín Obregón River Plate Actif 116 / 113 40% 1 31.01.2028 -
Nicolás Benedetti Deportivo Cali Actif 116 / 119 40% 1 17.01.2028 -
Marcelino Moreno Lanús Négociation 138 / 106 40% 1 17.01.2028 -
Junior Paredes Trujillanos Actif 112 / 116 40% 1 10.01.2028 -
Sebastián Guerrero Fenix Négociation 111 / 111 40% 1 10.01.2028 -
Etiosa Ighodaro Kaizer Chiefs Actif 115 / 101 40% 1 10.01.2028 -
Dylan Aquino Lanús Actif 126 / 129 40% 1 06.01.2028 -
Joaquín Gho Argentinos Juniors Actif 119 / 130 40% 1 06.01.2028 -
Álvaro Barreal Santos Actif 145 / 127 40% 1 06.01.2028 -
Emiliano Zambrano Gimnasia y Esgrima Actif 84 / 116 40% 2 26.08.2027 -
Leonel Jaime River Plate Actif 114 / 122 40% 2 26.08.2027 -
Yusi Alavés Actif 131 / 142 40% 1 16.08.2027 -
Alejandro Mina Cortulua Actif 108 / 117 40% 3 14.08.2027 -
Pablo Suárez Rentistas Actif 98 / 96 40% 1 14.08.2027 -
Ryunosuke Sato Valencia Actif 134 / 138 40% 1 13.08.2027 -
Diosmer Pacheco Mineros de Guayana Actif 87 / 87 40% 1 13.08.2027 -
Didier Dawson Envigado Actif 100 / 106 40% 2 11.08.2027 -
Santos Torrealba Portuguesa Actif 83 / 107 40% 1 11.08.2027 -
Jeffrey Annan Hasaacas Actif 94 / 96 40% 2 10.08.2027 -
Mfundo Vilakazi Kaizer Chiefs Actif 123 / 137 40% 1 01.08.2027 -
Daniel Banjaqui Benfica Actif 124 / 116 40% 1 31.07.2027 -
Bernardes Benfica Actif 105 / 118 40% 3 28.07.2027 -
Román Barrios Patronato Actif 83 / 117 40% 1 28.07.2027 -
Paulo Cardoso Sporting CP Actif 102 / 115 40% 1 26.07.2027 -
Lautaro Millán Independiente Actif 113 / 129 40% 2 25.07.2027 -
Martim Cunha Porto Actif 100 / 122 40% 1 25.07.2027 -
Filippo Scotti AC Milan Actif 108 / 110 40% 1 24.07.2027 -
Ian Wisdom Sporting Cristal Actif 104 / 102 40% 1 24.07.2027 -
Tiziano Cabrera Central Norte Actif 83 / 91 40% 1 23.07.2027 -
Adriano Jagušić Panathinaikos Actif 123 / 114 40% 1 23.07.2027 -
Dries Vanaken Mouscron Actif 127 / 124 40% 3 21.07.2027 -
Mateo Ostachi Alvarado Actif 79 / 111 40% 3 21.07.2027 -
Ramiro Jara Racing Actif 94 / 102 40% 1 18.07.2027 -
Louis Page West Ham United Actif 121 / 115 40% 3 17.07.2027 -
Nicolás Azambuja Nottingham Forest Actif 123 / 146 40% 3 17.07.2027 -
Eliás Montiel Pachuca Actif 128 / 157 40% 3 16.07.2027 -
Francisco Triver River Plate Actif 85 / 86 40% 1 15.07.2027 -
Juan David Obando Volna Actif 76 / 112 40% 1 14.07.2027 -
Hassan Beja AFC Leopards Actif 81 / 94 40% 1 14.07.2027 -
Mbekezeli Mbokazi Chicago Fire Actif 123 / 143 40% 3 13.07.2027 -
Mauricio Amaro Atlanta United FC Actif 120 / 112 40% 2 13.07.2027 -
Casian Soare Dinamo Vologda Actif 94 / 72 40% 1 13.07.2027 -
Simón Pinto Palestino Actif 97 / 89 40% 3 09.07.2027 -
Duvan Giraldo Cortulua Actif 137 / 135 40% 5 09.07.2027 -
Tiago Gordillo San Miguel Actif 84 / 107 40% 1 08.07.2027 -
Denys Smetana Metalurh Zaporizhzhia Actif 92 / 101 40% 1 08.07.2027 -
Alexis Fretes Libertad Actif 103 / 102 40% 3 07.07.2027 -
Vasyl Bundash Metalurh Zaporizhzhia Actif 109 / 112 40% 2 07.07.2027 -
Godwin Oham Warri Wolves Actif 86 / 96 40% 2 07.07.2027 -
Lucas Duré Montevideo City Torque Actif 108 / 110 40% 1 06.07.2027 -
José Pachuca Puebla Actif 114 / 136 40% 2 05.07.2027 -
Fabián Correa Barranquilla Actif 85 / 97 40% 2 03.07.2027 -
Olaniyi Saheed Kwara United Actif 90 / 89 40% 1 03.07.2027 -
Callum Tripp Milton Keynes Dons Actif 92 / 80 40% 1 29.06.2027 -
Moncef Zekri Sporting CP Actif 105 / 109 40% 1 27.06.2027 -
Aidan Elliott-Wheeler Gillingham Actif 87 / 82 40% 1 21.06.2027 -
Alin Kumer Čelik Genoa Actif 88 / 114 40% 1 21.06.2027 -
Mpho Khethang AS Police Actif 80 / 91 40% 1 21.06.2027 -
Marco Oroná Antofagasta Actif 105 / 115 40% 1 17.06.2027 -
Dennis Konney US Bougouba Actif 84 / 80 40% 1 15.06.2027 -
Arjan Malić Sturm Graz Actif 123 / 127 40% 1 14.06.2027 -
Renato Guimarães Veracruz Actif 118 / 119 40% 1 13.06.2027 -
Milan Roganović Partizan Actif 102 / 133 40% 1 10.06.2027 -
Vasco Santos Oliveirense Actif 89 / 102 40% 1 06.06.2027 -
Andrija Bulatović RC Lens Actif 122 / 142 40% 1 03.06.2027 -
Jan Bürger Burton Albion Actif 106 / 115 40% 1 03.06.2027 -
Toni Tamarit Alverca Actif 122 / 112 40% 1 02.06.2027 -
Mattia Mannini Juve Stabia Actif 108 / 126 40% 1 01.06.2027 -
Maeson King Portsmouth Actif 116 / 112 40% 1 01.06.2027 -
Tomás Galván River Plate Actif 130 / 133 40% 1 03.08.2026 -
Iván Tapia Barracas Central Actif 119 / 137 40% 1 03.08.2026 -
Gabriel Obredor Deportivo Riestra Actif 119 / 110 40% 1 03.08.2026 -
Tomás Silva Platense Actif 116 / 106 40% 1 01.08.2026 -
Adrián Spörle Belgrano Actif 130 / 104 40% 1 01.08.2026 -
Eduardo Bauermann Pachuca Actif 119 / 100 40% 1 01.08.2026 -